sensor_id;sensor_type;location;lat;lon;timestamp;P1;durP1;ratioP1;P2;durP2;ratioP2
16826;SDS011;8530;49.540;8.576;2023-02-28T00:00:44;3.77;;;3.47;;
16826;SDS011;8530;49.540;8.576;2023-02-28T00:03:11;4.50;;;4.10;;
16826;SDS011;8530;49.540;8.576;2023-02-28T00:05:38;6.03;;;4.17;;
16826;SDS011;8530;49.540;8.576;2023-02-28T00:08:04;6.27;;;3.73;;
16826;SDS011;8530;49.540;8.576;2023-02-28T00:10:31;3.53;;;3.33;;
16826;SDS011;8530;49.540;8.576;2023-02-28T00:13:00;4.90;;;3.47;;
16826;SDS011;8530;49.540;8.576;2023-02-28T00:15:29;4.60;;;4.20;;
16826;SDS011;8530;49.540;8.576;2023-02-28T00:17:56;4.23;;;3.50;;
16826;SDS011;8530;49.540;8.576;2023-02-28T00:27:07;4.23;;;3.90;;
16826;SDS011;8530;49.540;8.576;2023-02-28T00:29:35;3.93;;;3.60;;
16826;SDS011;8530;49.540;8.576;2023-02-28T01:16:22;7.97;;;4.97;;
16826;SDS011;8530;49.540;8.576;2023-02-28T01:18:50;4.93;;;4.00;;
16826;SDS011;8530;49.540;8.576;2023-02-28T01:21:18;4.10;;;3.77;;
16826;SDS011;8530;49.540;8.576;2023-02-28T01:23:46;4.80;;;4.47;;
16826;SDS011;8530;49.540;8.576;2023-02-28T01:26:15;4.40;;;4.00;;
16826;SDS011;8530;49.540;8.576;2023-02-28T01:28:43;8.53;;;4.90;;
16826;SDS011;8530;49.540;8.576;2023-02-28T01:31:10;4.73;;;4.17;;
16826;SDS011;8530;49.540;8.576;2023-02-28T01:33:38;9.33;;;5.00;;
16826;SDS011;8530;49.540;8.576;2023-02-28T01:36:06;4.40;;;4.00;;
16826;SDS011;8530;49.540;8.576;2023-02-28T01:38:35;4.43;;;4.13;;
16826;SDS011;8530;49.540;8.576;2023-02-28T01:41:02;4.90;;;4.50;;
16826;SDS011;8530;49.540;8.576;2023-02-28T01:43:30;5.43;;;5.00;;
16826;SDS011;8530;49.540;8.576;2023-02-28T01:46:00;5.67;;;5.03;;
16826;SDS011;8530;49.540;8.576;2023-02-28T01:48:27;6.33;;;4.70;;
16826;SDS011;8530;49.540;8.576;2023-02-28T01:50:59;5.80;;;5.20;;
16826;SDS011;8530;49.540;8.576;2023-02-28T01:53:30;5.80;;;5.17;;
16826;SDS011;8530;49.540;8.576;2023-02-28T01:56:02;5.60;;;5.10;;
16826;SDS011;8530;49.540;8.576;2023-02-28T01:58:31;4.93;;;4.53;;
16826;SDS011;8530;49.540;8.576;2023-02-28T02:00:59;5.33;;;4.87;;
16826;SDS011;8530;49.540;8.576;2023-02-28T02:03:27;5.63;;;4.90;;
16826;SDS011;8530;49.540;8.576;2023-02-28T02:09:19;5.80;;;4.27;;
16826;SDS011;8530;49.540;8.576;2023-02-28T02:11:45;6.40;;;5.80;;
16826;SDS011;8530;49.540;8.576;2023-02-28T02:14:29;5.87;;;5.37;;
16826;SDS011;8530;49.540;8.576;2023-02-28T02:17:07;5.50;;;5.00;;
16826;SDS011;8530;49.540;8.576;2023-02-28T02:19:53;6.20;;;5.70;;
16826;SDS011;8530;49.540;8.576;2023-02-28T02:26:01;6.10;;;5.50;;
16826;SDS011;8530;49.540;8.576;2023-02-28T02:29:13;6.00;;;5.50;;
16826;SDS011;8530;49.540;8.576;2023-02-28T02:32:02;7.20;;;6.10;;
16826;SDS011;8530;49.540;8.576;2023-02-28T02:34:57;6.87;;;6.20;;
16826;SDS011;8530;49.540;8.576;2023-02-28T02:37:35;5.67;;;5.17;;
16826;SDS011;8530;49.540;8.576;2023-02-28T02:40:09;6.10;;;5.37;;
16826;SDS011;8530;49.540;8.576;2023-02-28T02:42:41;5.50;;;5.10;;
16826;SDS011;8530;49.540;8.576;2023-02-28T02:45:14;7.20;;;5.57;;
16826;SDS011;8530;49.540;8.576;2023-02-28T02:47:45;6.83;;;6.13;;
16826;SDS011;8530;49.540;8.576;2023-02-28T02:50:14;6.83;;;6.20;;
16826;SDS011;8530;49.540;8.576;2023-02-28T02:52:45;7.60;;;5.80;;
16826;SDS011;8530;49.540;8.576;2023-02-28T02:55:17;7.97;;;7.13;;
16826;SDS011;8530;49.540;8.576;2023-02-28T02:57:45;6.83;;;6.17;;
16826;SDS011;8530;49.540;8.576;2023-02-28T03:00:16;6.50;;;5.90;;
16826;SDS011;8530;49.540;8.576;2023-02-28T03:02:45;7.97;;;5.93;;
16826;SDS011;8530;49.540;8.576;2023-02-28T03:05:17;7.73;;;6.90;;
16826;SDS011;8530;49.540;8.576;2023-02-28T03:07:46;9.40;;;6.10;;
16826;SDS011;8530;49.540;8.576;2023-02-28T03:10:27;7.27;;;6.57;;
16826;SDS011;8530;49.540;8.576;2023-02-28T03:12:58;8.47;;;6.50;;
16826;SDS011;8530;49.540;8.576;2023-02-28T03:15:35;9.30;;;6.10;;
16826;SDS011;8530;49.540;8.576;2023-02-28T03:18:14;6.10;;;5.63;;
16826;SDS011;8530;49.540;8.576;2023-02-28T03:20:53;6.67;;;6.07;;
16826;SDS011;8530;49.540;8.576;2023-02-28T03:23:27;5.73;;;5.17;;
16826;SDS011;8530;49.540;8.576;2023-02-28T03:26:02;5.53;;;4.97;;
16826;SDS011;8530;49.540;8.576;2023-02-28T03:28:35;8.53;;;5.60;;
16826;SDS011;8530;49.540;8.576;2023-02-28T03:31:12;10.60;;;6.47;;
16826;SDS011;8530;49.540;8.576;2023-02-28T03:33:43;7.47;;;6.10;;
16826;SDS011;8530;49.540;8.576;2023-02-28T03:36:21;5.43;;;5.03;;
16826;SDS011;8530;49.540;8.576;2023-02-28T03:38:51;7.33;;;6.63;;
16826;SDS011;8530;49.540;8.576;2023-02-28T03:41:22;9.10;;;5.30;;
16826;SDS011;8530;49.540;8.576;2023-02-28T03:43:53;5.87;;;5.30;;
16826;SDS011;8530;49.540;8.576;2023-02-28T03:46:24;7.83;;;5.60;;
16826;SDS011;8530;49.540;8.576;2023-02-28T03:48:57;6.20;;;5.60;;
16826;SDS011;8530;49.540;8.576;2023-02-28T03:51:29;6.63;;;5.67;;
16826;SDS011;8530;49.540;8.576;2023-02-28T03:53:57;6.90;;;6.13;;
16826;SDS011;8530;49.540;8.576;2023-02-28T03:56:30;6.33;;;5.73;;
16826;SDS011;8530;49.540;8.576;2023-02-28T03:59:01;7.73;;;6.50;;
16826;SDS011;8530;49.540;8.576;2023-02-28T04:01:33;10.10;;;6.00;;
16826;SDS011;8530;49.540;8.576;2023-02-28T04:04:02;6.33;;;5.80;;
16826;SDS011;8530;49.540;8.576;2023-02-28T04:06:31;8.33;;;6.60;;
16826;SDS011;8530;49.540;8.576;2023-02-28T04:08:59;8.23;;;5.70;;
16826;SDS011;8530;49.540;8.576;2023-02-28T04:11:27;8.23;;;7.37;;
16826;SDS011;8530;49.540;8.576;2023-02-28T04:13:59;6.70;;;5.93;;
16826;SDS011;8530;49.540;8.576;2023-02-28T04:16:27;5.93;;;4.90;;
16826;SDS011;8530;49.540;8.576;2023-02-28T04:18:53;6.77;;;6.10;;
16826;SDS011;8530;49.540;8.576;2023-02-28T04:21:26;6.20;;;5.60;;
16826;SDS011;8530;49.540;8.576;2023-02-28T04:23:55;6.23;;;5.73;;
16826;SDS011;8530;49.540;8.576;2023-02-28T04:26:25;7.33;;;6.40;;
16826;SDS011;8530;49.540;8.576;2023-02-28T04:28:54;7.50;;;6.40;;
16826;SDS011;8530;49.540;8.576;2023-02-28T04:31:21;6.90;;;6.23;;
16826;SDS011;8530;49.540;8.576;2023-02-28T04:33:48;6.30;;;5.70;;
16826;SDS011;8530;49.540;8.576;2023-02-28T04:36:14;7.87;;;5.77;;
16826;SDS011;8530;49.540;8.576;2023-02-28T04:38:42;9.30;;;6.00;;
16826;SDS011;8530;49.540;8.576;2023-02-28T04:41:11;10.67;;;5.73;;
16826;SDS011;8530;49.540;8.576;2023-02-28T04:43:38;6.83;;;6.13;;
16826;SDS011;8530;49.540;8.576;2023-02-28T04:46:05;7.07;;;6.37;;
16826;SDS011;8530;49.540;8.576;2023-02-28T04:48:33;6.50;;;5.90;;
16826;SDS011;8530;49.540;8.576;2023-02-28T04:51:02;11.30;;;6.17;;
16826;SDS011;8530;49.540;8.576;2023-02-28T04:53:29;12.17;;;7.47;;
16826;SDS011;8530;49.540;8.576;2023-02-28T04:55:56;7.30;;;5.77;;
16826;SDS011;8530;49.540;8.576;2023-02-28T04:58:25;6.20;;;5.60;;
16826;SDS011;8530;49.540;8.576;2023-02-28T05:00:53;7.10;;;6.10;;
16826;SDS011;8530;49.540;8.576;2023-02-28T05:03:20;7.70;;;7.00;;
16826;SDS011;8530;49.540;8.576;2023-02-28T05:05:47;8.73;;;6.80;;
16826;SDS011;8530;49.540;8.576;2023-02-28T05:08:14;10.87;;;8.13;;
16826;SDS011;8530;49.540;8.576;2023-02-28T05:10:41;7.17;;;6.10;;
16826;SDS011;8530;49.540;8.576;2023-02-28T05:13:08;6.77;;;6.07;;
16826;SDS011;8530;49.540;8.576;2023-02-28T05:15:38;7.87;;;7.00;;
16826;SDS011;8530;49.540;8.576;2023-02-28T05:18:05;7.67;;;6.77;;
16826;SDS011;8530;49.540;8.576;2023-02-28T05:20:32;18.10;;;11.83;;
16826;SDS011;8530;49.540;8.576;2023-02-28T05:22:58;36.07;;;19.77;;
16826;SDS011;8530;49.540;8.576;2023-02-28T05:25:26;19.33;;;12.13;;
16826;SDS011;8530;49.540;8.576;2023-02-28T05:27:52;11.60;;;8.53;;
16826;SDS011;8530;49.540;8.576;2023-02-28T05:30:19;9.73;;;7.13;;
16826;SDS011;8530;49.540;8.576;2023-02-28T05:32:49;8.53;;;7.70;;
16826;SDS011;8530;49.540;8.576;2023-02-28T05:35:17;9.57;;;8.27;;
16826;SDS011;8530;49.540;8.576;2023-02-28T05:37:44;9.20;;;8.40;;
16826;SDS011;8530;49.540;8.576;2023-02-28T05:40:11;10.50;;;7.50;;
16826;SDS011;8530;49.540;8.576;2023-02-28T05:42:38;7.10;;;6.40;;
16826;SDS011;8530;49.540;8.576;2023-02-28T05:45:05;6.93;;;6.33;;
16826;SDS011;8530;49.540;8.576;2023-02-28T05:47:33;7.60;;;6.80;;
16826;SDS011;8530;49.540;8.576;2023-02-28T05:50:02;8.87;;;7.37;;
16826;SDS011;8530;49.540;8.576;2023-02-28T05:52:30;8.07;;;7.23;;
16826;SDS011;8530;49.540;8.576;2023-02-28T05:54:56;6.90;;;6.30;;
16826;SDS011;8530;49.540;8.576;2023-02-28T05:57:23;8.37;;;7.43;;
16826;SDS011;8530;49.540;8.576;2023-02-28T05:59:50;6.87;;;6.27;;
16826;SDS011;8530;49.540;8.576;2023-02-28T06:02:17;7.80;;;7.10;;
16826;SDS011;8530;49.540;8.576;2023-02-28T06:04:44;7.30;;;6.60;;
16826;SDS011;8530;49.540;8.576;2023-02-28T06:07:12;8.30;;;7.50;;
16826;SDS011;8530;49.540;8.576;2023-02-28T06:09:40;8.93;;;7.53;;
16826;SDS011;8530;49.540;8.576;2023-02-28T06:12:06;8.50;;;6.93;;
16826;SDS011;8530;49.540;8.576;2023-02-28T06:14:35;11.30;;;7.47;;
16826;SDS011;8530;49.540;8.576;2023-02-28T06:17:02;8.53;;;6.70;;
16826;SDS011;8530;49.540;8.576;2023-02-28T06:19:29;7.20;;;6.50;;
16826;SDS011;8530;49.540;8.576;2023-02-28T06:21:56;8.23;;;7.43;;
16826;SDS011;8530;49.540;8.576;2023-02-28T06:24:26;7.87;;;7.07;;
16826;SDS011;8530;49.540;8.576;2023-02-28T06:26:54;9.10;;;7.00;;
16826;SDS011;8530;49.540;8.576;2023-02-28T06:29:20;8.47;;;6.70;;
16826;SDS011;8530;49.540;8.576;2023-02-28T06:31:47;7.40;;;6.73;;
16826;SDS011;8530;49.540;8.576;2023-02-28T06:34:14;7.73;;;6.90;;
16826;SDS011;8530;49.540;8.576;2023-02-28T06:36:42;7.37;;;6.73;;
16826;SDS011;8530;49.540;8.576;2023-02-28T06:39:09;7.53;;;6.93;;
16826;SDS011;8530;49.540;8.576;2023-02-28T06:41:37;13.57;;;12.27;;
16826;SDS011;8530;49.540;8.576;2023-02-28T06:44:05;8.80;;;7.53;;
16826;SDS011;8530;49.540;8.576;2023-02-28T06:46:38;7.70;;;6.90;;
16826;SDS011;8530;49.540;8.576;2023-02-28T06:49:04;8.43;;;7.63;;
16826;SDS011;8530;49.540;8.576;2023-02-28T06:51:34;8.80;;;7.90;;
16826;SDS011;8530;49.540;8.576;2023-02-28T06:54:01;6.50;;;5.90;;
16826;SDS011;8530;49.540;8.576;2023-02-28T06:56:28;9.80;;;7.43;;
16826;SDS011;8530;49.540;8.576;2023-02-28T06:58:56;7.30;;;6.37;;
16826;SDS011;8530;49.540;8.576;2023-02-28T07:01:23;9.60;;;6.57;;
16826;SDS011;8530;49.540;8.576;2023-02-28T07:03:50;6.67;;;6.03;;
16826;SDS011;8530;49.540;8.576;2023-02-28T07:06:18;8.90;;;6.73;;
16826;SDS011;8530;49.540;8.576;2023-02-28T07:08:45;7.23;;;6.50;;
16826;SDS011;8530;49.540;8.576;2023-02-28T07:11:11;7.77;;;6.60;;
16826;SDS011;8530;49.540;8.576;2023-02-28T07:13:38;6.70;;;6.10;;
16826;SDS011;8530;49.540;8.576;2023-02-28T07:16:07;7.37;;;6.40;;
16826;SDS011;8530;49.540;8.576;2023-02-28T07:18:35;7.17;;;6.47;;
16826;SDS011;8530;49.540;8.576;2023-02-28T07:21:03;11.57;;;6.57;;
16826;SDS011;8530;49.540;8.576;2023-02-28T07:23:31;8.10;;;6.53;;
16826;SDS011;8530;49.540;8.576;2023-02-28T07:25:58;7.43;;;6.73;;
16826;SDS011;8530;49.540;8.576;2023-02-28T07:28:25;7.03;;;6.20;;
16826;SDS011;8530;49.540;8.576;2023-02-28T07:30:52;7.20;;;6.50;;
16826;SDS011;8530;49.540;8.576;2023-02-28T07:33:20;8.90;;;8.00;;
16826;SDS011;8530;49.540;8.576;2023-02-28T07:35:47;9.13;;;6.57;;
16826;SDS011;8530;49.540;8.576;2023-02-28T07:38:13;7.17;;;6.47;;
16826;SDS011;8530;49.540;8.576;2023-02-28T07:40:40;7.93;;;6.90;;
16826;SDS011;8530;49.540;8.576;2023-02-28T07:43:07;8.00;;;6.33;;
16826;SDS011;8530;49.540;8.576;2023-02-28T07:45:33;11.97;;;6.70;;
16826;SDS011;8530;49.540;8.576;2023-02-28T07:48:00;6.60;;;6.00;;
16826;SDS011;8530;49.540;8.576;2023-02-28T07:50:28;8.13;;;5.93;;
16826;SDS011;8530;49.540;8.576;2023-02-28T07:52:56;7.43;;;6.70;;
16826;SDS011;8530;49.540;8.576;2023-02-28T07:55:23;10.63;;;6.07;;
16826;SDS011;8530;49.540;8.576;2023-02-28T07:57:50;8.13;;;6.07;;
16826;SDS011;8530;49.540;8.576;2023-02-28T08:00:17;8.83;;;5.97;;
16826;SDS011;8530;49.540;8.576;2023-02-28T08:02:44;9.80;;;6.97;;
16826;SDS011;8530;49.540;8.576;2023-02-28T08:05:10;10.90;;;6.47;;
16826;SDS011;8530;49.540;8.576;2023-02-28T08:07:38;6.13;;;4.90;;
16826;SDS011;8530;49.540;8.576;2023-02-28T08:10:06;7.23;;;6.10;;
16826;SDS011;8530;49.540;8.576;2023-02-28T08:12:35;5.80;;;5.00;;
16826;SDS011;8530;49.540;8.576;2023-02-28T08:15:02;6.00;;;5.50;;
16826;SDS011;8530;49.540;8.576;2023-02-28T08:17:29;6.93;;;4.93;;
16826;SDS011;8530;49.540;8.576;2023-02-28T08:19:55;7.60;;;5.87;;
16826;SDS011;8530;49.540;8.576;2023-02-28T08:22:22;5.40;;;4.60;;
16826;SDS011;8530;49.540;8.576;2023-02-28T08:24:50;7.40;;;5.97;;
16826;SDS011;8530;49.540;8.576;2023-02-28T08:27:17;7.10;;;5.60;;
16826;SDS011;8530;49.540;8.576;2023-02-28T08:29:43;9.67;;;6.20;;
16826;SDS011;8530;49.540;8.576;2023-02-28T08:32:10;6.30;;;5.33;;
16826;SDS011;8530;49.540;8.576;2023-02-28T08:34:38;12.93;;;5.50;;
16826;SDS011;8530;49.540;8.576;2023-02-28T08:37:05;9.23;;;5.23;;
16826;SDS011;8530;49.540;8.576;2023-02-28T08:39:33;5.80;;;5.20;;
16826;SDS011;8530;49.540;8.576;2023-02-28T08:42:01;7.70;;;5.23;;
16826;SDS011;8530;49.540;8.576;2023-02-28T08:44:28;8.20;;;5.80;;
16826;SDS011;8530;49.540;8.576;2023-02-28T08:46:55;10.30;;;5.50;;
16826;SDS011;8530;49.540;8.576;2023-02-28T08:49:22;5.77;;;5.20;;
16826;SDS011;8530;49.540;8.576;2023-02-28T08:51:48;6.10;;;5.43;;
16826;SDS011;8530;49.540;8.576;2023-02-28T08:54:15;6.20;;;5.10;;
16826;SDS011;8530;49.540;8.576;2023-02-28T08:56:44;7.23;;;5.70;;
16826;SDS011;8530;49.540;8.576;2023-02-28T08:59:12;7.60;;;5.70;;
16826;SDS011;8530;49.540;8.576;2023-02-28T09:01:40;5.70;;;4.93;;
16826;SDS011;8530;49.540;8.576;2023-02-28T09:04:08;11.17;;;5.50;;
16826;SDS011;8530;49.540;8.576;2023-02-28T09:06:36;5.93;;;5.30;;
16826;SDS011;8530;49.540;8.576;2023-02-28T09:09:03;14.93;;;6.53;;
16826;SDS011;8530;49.540;8.576;2023-02-28T09:11:32;11.60;;;6.60;;
16826;SDS011;8530;49.540;8.576;2023-02-28T09:13:59;8.07;;;6.43;;
16826;SDS011;8530;49.540;8.576;2023-02-28T09:16:29;10.33;;;6.10;;
16826;SDS011;8530;49.540;8.576;2023-02-28T09:18:57;7.83;;;5.67;;
16826;SDS011;8530;49.540;8.576;2023-02-28T09:21:24;7.70;;;6.10;;
16826;SDS011;8530;49.540;8.576;2023-02-28T09:23:51;10.90;;;6.33;;
16826;SDS011;8530;49.540;8.576;2023-02-28T09:26:18;8.37;;;6.80;;
16826;SDS011;8530;49.540;8.576;2023-02-28T09:28:47;7.30;;;6.60;;
16826;SDS011;8530;49.540;8.576;2023-02-28T09:31:14;9.30;;;7.27;;
16826;SDS011;8530;49.540;8.576;2023-02-28T09:33:47;7.53;;;6.70;;
16826;SDS011;8530;49.540;8.576;2023-02-28T09:36:13;9.93;;;7.30;;
16826;SDS011;8530;49.540;8.576;2023-02-28T09:38:40;11.50;;;8.40;;
16826;SDS011;8530;49.540;8.576;2023-02-28T09:41:10;7.27;;;6.57;;
16826;SDS011;8530;49.540;8.576;2023-02-28T09:43:41;8.73;;;6.90;;
16826;SDS011;8530;49.540;8.576;2023-02-28T09:46:13;8.93;;;7.50;;
16826;SDS011;8530;49.540;8.576;2023-02-28T09:48:48;7.33;;;6.63;;
16826;SDS011;8530;49.540;8.576;2023-02-28T09:51:23;8.60;;;6.33;;
16826;SDS011;8530;49.540;8.576;2023-02-28T09:53:56;8.97;;;7.50;;
16826;SDS011;8530;49.540;8.576;2023-02-28T09:56:24;9.10;;;7.70;;
16826;SDS011;8530;49.540;8.576;2023-02-28T09:58:54;7.20;;;6.50;;
16826;SDS011;8530;49.540;8.576;2023-02-28T10:01:25;10.17;;;6.73;;
16826;SDS011;8530;49.540;8.576;2023-02-28T10:03:59;9.17;;;7.90;;
16826;SDS011;8530;49.540;8.576;2023-02-28T10:06:32;21.43;;;8.90;;
16826;SDS011;8530;49.540;8.576;2023-02-28T10:09:07;12.03;;;8.17;;
16826;SDS011;8530;49.540;8.576;2023-02-28T10:11:38;8.37;;;6.97;;
16826;SDS011;8530;49.540;8.576;2023-02-28T10:14:10;11.57;;;8.20;;
16826;SDS011;8530;49.540;8.576;2023-02-28T10:16:42;9.87;;;8.03;;
16826;SDS011;8530;49.540;8.576;2023-02-28T10:19:14;13.93;;;8.70;;
16826;SDS011;8530;49.540;8.576;2023-02-28T10:21:47;8.43;;;7.53;;
16826;SDS011;8530;49.540;8.576;2023-02-28T10:24:23;10.30;;;9.00;;
16826;SDS011;8530;49.540;8.576;2023-02-28T10:26:56;8.03;;;6.57;;
16826;SDS011;8530;49.540;8.576;2023-02-28T10:29:27;13.27;;;7.10;;
16826;SDS011;8530;49.540;8.576;2023-02-28T10:31:55;8.80;;;7.30;;
16826;SDS011;8530;49.540;8.576;2023-02-28T10:34:23;12.40;;;8.27;;
16826;SDS011;8530;49.540;8.576;2023-02-28T10:36:50;11.13;;;7.70;;
16826;SDS011;8530;49.540;8.576;2023-02-28T10:39:36;11.63;;;7.53;;
16826;SDS011;8530;49.540;8.576;2023-02-28T10:42:05;10.53;;;7.40;;
16826;SDS011;8530;49.540;8.576;2023-02-28T10:44:45;9.40;;;8.20;;
16826;SDS011;8530;49.540;8.576;2023-02-28T10:47:13;9.60;;;6.73;;
16826;SDS011;8530;49.540;8.576;2023-02-28T10:49:47;10.03;;;8.20;;
16826;SDS011;8530;49.540;8.576;2023-02-28T10:52:16;11.23;;;8.10;;
16826;SDS011;8530;49.540;8.576;2023-02-28T10:55:13;12.97;;;7.87;;
16826;SDS011;8530;49.540;8.576;2023-02-28T10:57:42;12.93;;;8.43;;
16826;SDS011;8530;49.540;8.576;2023-02-28T11:00:12;9.17;;;7.77;;
16826;SDS011;8530;49.540;8.576;2023-02-28T11:02:41;9.30;;;8.33;;
16826;SDS011;8530;49.540;8.576;2023-02-28T11:05:24;12.33;;;7.63;;
16826;SDS011;8530;49.540;8.576;2023-02-28T11:07:53;8.73;;;7.80;;
16826;SDS011;8530;49.540;8.576;2023-02-28T11:10:23;8.70;;;7.80;;
16826;SDS011;8530;49.540;8.576;2023-02-28T11:12:54;14.87;;;9.17;;
16826;SDS011;8530;49.540;8.576;2023-02-28T11:15:24;8.60;;;6.60;;
16826;SDS011;8530;49.540;8.576;2023-02-28T11:17:53;9.70;;;7.70;;
16826;SDS011;8530;49.540;8.576;2023-02-28T11:20:24;9.70;;;7.43;;
16826;SDS011;8530;49.540;8.576;2023-02-28T11:22:54;9.80;;;8.80;;
16826;SDS011;8530;49.540;8.576;2023-02-28T11:25:23;9.13;;;8.23;;
16826;SDS011;8530;49.540;8.576;2023-02-28T11:27:53;12.13;;;8.87;;
16826;SDS011;8530;49.540;8.576;2023-02-28T11:30:24;9.23;;;7.50;;
16826;SDS011;8530;49.540;8.576;2023-02-28T11:32:52;7.70;;;6.90;;
16826;SDS011;8530;49.540;8.576;2023-02-28T11:35:21;8.57;;;7.43;;
16826;SDS011;8530;49.540;8.576;2023-02-28T11:37:54;10.07;;;9.00;;
16826;SDS011;8530;49.540;8.576;2023-02-28T11:40:23;7.60;;;6.90;;
16826;SDS011;8530;49.540;8.576;2023-02-28T11:43:01;10.83;;;8.50;;
16826;SDS011;8530;49.540;8.576;2023-02-28T11:45:42;11.90;;;8.23;;
16826;SDS011;8530;49.540;8.576;2023-02-28T11:48:19;9.40;;;7.60;;
16826;SDS011;8530;49.540;8.576;2023-02-28T11:50:54;9.90;;;7.63;;
16826;SDS011;8530;49.540;8.576;2023-02-28T11:53:33;14.73;;;8.27;;
16826;SDS011;8530;49.540;8.576;2023-02-28T11:56:08;8.73;;;7.50;;
16826;SDS011;8530;49.540;8.576;2023-02-28T11:58:42;10.33;;;8.27;;
16826;SDS011;8530;49.540;8.576;2023-02-28T12:01:18;8.80;;;6.90;;
16826;SDS011;8530;49.540;8.576;2023-02-28T12:03:56;9.47;;;7.90;;
16826;SDS011;8530;49.540;8.576;2023-02-28T12:06:30;8.93;;;8.03;;
16826;SDS011;8530;49.540;8.576;2023-02-28T12:09:04;9.47;;;7.93;;
16826;SDS011;8530;49.540;8.576;2023-02-28T12:11:48;9.00;;;7.63;;
16826;SDS011;8530;49.540;8.576;2023-02-28T12:14:29;11.63;;;8.77;;
16826;SDS011;8530;49.540;8.576;2023-02-28T12:17:13;11.10;;;8.60;;
16826;SDS011;8530;49.540;8.576;2023-02-28T12:19:49;12.70;;;7.77;;
16826;SDS011;8530;49.540;8.576;2023-02-28T12:22:32;10.10;;;8.60;;
16826;SDS011;8530;49.540;8.576;2023-02-28T12:28:08;9.27;;;8.37;;
16826;SDS011;8530;49.540;8.576;2023-02-28T12:30:37;13.97;;;8.80;;
16826;SDS011;8530;49.540;8.576;2023-02-28T12:33:12;12.53;;;8.77;;
16826;SDS011;8530;49.540;8.576;2023-02-28T12:35:44;11.23;;;8.73;;
16826;SDS011;8530;49.540;8.576;2023-02-28T12:38:17;10.60;;;9.13;;
16826;SDS011;8530;49.540;8.576;2023-02-28T12:40:49;11.40;;;8.97;;
16826;SDS011;8530;49.540;8.576;2023-02-28T12:43:20;9.87;;;8.03;;
16826;SDS011;8530;49.540;8.576;2023-02-28T12:45:49;10.77;;;9.00;;
16826;SDS011;8530;49.540;8.576;2023-02-28T12:48:20;12.37;;;8.70;;
16826;SDS011;8530;49.540;8.576;2023-02-28T12:50:52;12.77;;;10.63;;
16826;SDS011;8530;49.540;8.576;2023-02-28T12:53:23;15.20;;;9.20;;
16826;SDS011;8530;49.540;8.576;2023-02-28T12:55:56;9.00;;;8.10;;
16826;SDS011;8530;49.540;8.576;2023-02-28T12:58:31;10.70;;;9.60;;
16826;SDS011;8530;49.540;8.576;2023-02-28T13:01:11;14.07;;;10.17;;
16826;SDS011;8530;49.540;8.576;2023-02-28T13:03:57;13.40;;;10.13;;
16826;SDS011;8530;49.540;8.576;2023-02-28T13:06:55;13.07;;;10.00;;
16826;SDS011;8530;49.540;8.576;2023-02-28T13:09:49;10.20;;;8.00;;
16826;SDS011;8530;49.540;8.576;2023-02-28T13:12:18;9.10;;;8.20;;
16826;SDS011;8530;49.540;8.576;2023-02-28T13:14:47;11.77;;;10.17;;
16826;SDS011;8530;49.540;8.576;2023-02-28T13:17:17;11.97;;;9.10;;
16826;SDS011;8530;49.540;8.576;2023-02-28T13:19:46;9.50;;;8.50;;
16826;SDS011;8530;49.540;8.576;2023-02-28T13:22:36;11.10;;;8.67;;
16826;SDS011;8530;49.540;8.576;2023-02-28T13:28:56;11.20;;;7.67;;
16826;SDS011;8530;49.540;8.576;2023-02-28T13:31:31;10.50;;;9.40;;
16826;SDS011;8530;49.540;8.576;2023-02-28T13:34:06;13.47;;;8.93;;
16826;SDS011;8530;49.540;8.576;2023-02-28T13:36:40;9.30;;;8.30;;
16826;SDS011;8530;49.540;8.576;2023-02-28T13:42:23;10.80;;;8.30;;
16826;SDS011;8530;49.540;8.576;2023-02-28T13:47:51;9.30;;;7.73;;
16826;SDS011;8530;49.540;8.576;2023-02-28T13:50:22;8.97;;;7.60;;
16826;SDS011;8530;49.540;8.576;2023-02-28T13:52:57;13.20;;;9.27;;
16826;SDS011;8530;49.540;8.576;2023-02-28T13:55:52;10.13;;;8.23;;
16826;SDS011;8530;49.540;8.576;2023-02-28T13:58:27;9.03;;;7.63;;
16826;SDS011;8530;49.540;8.576;2023-02-28T14:01:11;11.90;;;9.20;;
16826;SDS011;8530;49.540;8.576;2023-02-28T14:03:57;10.00;;;8.77;;
16826;SDS011;8530;49.540;8.576;2023-02-28T14:06:48;10.17;;;8.90;;
16826;SDS011;8530;49.540;8.576;2023-02-28T14:09:19;12.40;;;8.43;;
16826;SDS011;8530;49.540;8.576;2023-02-28T14:11:50;12.87;;;8.87;;
16826;SDS011;8530;49.540;8.576;2023-02-28T14:17:19;10.80;;;8.47;;
16826;SDS011;8530;49.540;8.576;2023-02-28T14:19:46;12.30;;;8.73;;
16826;SDS011;8530;49.540;8.576;2023-02-28T14:22:17;9.23;;;8.23;;
16826;SDS011;8530;49.540;8.576;2023-02-28T14:25:10;13.43;;;9.17;;
16826;SDS011;8530;49.540;8.576;2023-02-28T14:27:45;9.27;;;8.00;;
16826;SDS011;8530;49.540;8.576;2023-02-28T14:30:26;8.90;;;8.00;;
16826;SDS011;8530;49.540;8.576;2023-02-28T14:33:13;11.90;;;8.90;;
16826;SDS011;8530;49.540;8.576;2023-02-28T14:35:52;10.30;;;9.20;;
16826;SDS011;8530;49.540;8.576;2023-02-28T14:38:31;14.00;;;9.50;;
16826;SDS011;8530;49.540;8.576;2023-02-28T14:41:02;11.60;;;8.53;;
16826;SDS011;8530;49.540;8.576;2023-02-28T14:43:31;14.47;;;9.90;;
16826;SDS011;8530;49.540;8.576;2023-02-28T14:45:58;10.33;;;9.33;;
16826;SDS011;8530;49.540;8.576;2023-02-28T14:48:31;15.20;;;9.90;;
16826;SDS011;8530;49.540;8.576;2023-02-28T14:51:00;11.50;;;8.33;;
16826;SDS011;8530;49.540;8.576;2023-02-28T14:53:28;13.67;;;8.00;;
16826;SDS011;8530;49.540;8.576;2023-02-28T14:56:01;9.37;;;8.27;;
16826;SDS011;8530;49.540;8.576;2023-02-28T14:58:28;9.97;;;8.73;;
16826;SDS011;8530;49.540;8.576;2023-02-28T15:00:57;9.90;;;9.00;;
16826;SDS011;8530;49.540;8.576;2023-02-28T15:03:29;11.17;;;9.57;;
16826;SDS011;8530;49.540;8.576;2023-02-28T15:06:00;11.83;;;9.40;;
16826;SDS011;8530;49.540;8.576;2023-02-28T15:08:28;16.50;;;10.60;;
16826;SDS011;8530;49.540;8.576;2023-02-28T15:11:00;17.93;;;11.70;;
16826;SDS011;8530;49.540;8.576;2023-02-28T15:13:31;15.50;;;10.33;;
16826;SDS011;8530;49.540;8.576;2023-02-28T15:16:03;13.00;;;10.03;;
16826;SDS011;8530;49.540;8.576;2023-02-28T15:18:36;17.63;;;12.57;;
16826;SDS011;8530;49.540;8.576;2023-02-28T15:21:11;12.93;;;9.97;;
16826;SDS011;8530;49.540;8.576;2023-02-28T15:23:39;10.90;;;9.67;;
16826;SDS011;8530;49.540;8.576;2023-02-28T15:26:09;12.30;;;9.43;;
16826;SDS011;8530;49.540;8.576;2023-02-28T15:28:39;10.67;;;9.27;;
16826;SDS011;8530;49.540;8.576;2023-02-28T15:31:19;12.27;;;10.23;;
16826;SDS011;8530;49.540;8.576;2023-02-28T15:33:54;10.67;;;9.50;;
16826;SDS011;8530;49.540;8.576;2023-02-28T15:36:23;12.00;;;10.07;;
16826;SDS011;8530;49.540;8.576;2023-02-28T15:38:52;15.20;;;9.03;;
16826;SDS011;8530;49.540;8.576;2023-02-28T15:41:26;11.40;;;9.53;;
16826;SDS011;8530;49.540;8.576;2023-02-28T15:46:40;10.23;;;9.17;;
16826;SDS011;8530;49.540;8.576;2023-02-28T15:49:18;10.13;;;8.70;;
16826;SDS011;8530;49.540;8.576;2023-02-28T15:51:47;12.60;;;9.07;;
16826;SDS011;8530;49.540;8.576;2023-02-28T15:54:17;11.40;;;8.13;;
16826;SDS011;8530;49.540;8.576;2023-02-28T15:56:49;12.43;;;8.80;;
16826;SDS011;8530;49.540;8.576;2023-02-28T15:59:19;11.93;;;10.70;;
16826;SDS011;8530;49.540;8.576;2023-02-28T16:01:58;9.07;;;8.10;;
16826;SDS011;8530;49.540;8.576;2023-02-28T16:04:30;10.83;;;8.60;;
16826;SDS011;8530;49.540;8.576;2023-02-28T16:07:00;10.57;;;8.33;;
16826;SDS011;8530;49.540;8.576;2023-02-28T16:09:29;17.57;;;10.80;;
16826;SDS011;8530;49.540;8.576;2023-02-28T16:11:58;11.30;;;10.10;;
16826;SDS011;8530;49.540;8.576;2023-02-28T16:14:27;10.87;;;9.60;;
16826;SDS011;8530;49.540;8.576;2023-02-28T16:16:57;11.20;;;8.93;;
16826;SDS011;8530;49.540;8.576;2023-02-28T16:19:30;14.53;;;9.23;;
16826;SDS011;8530;49.540;8.576;2023-02-28T16:21:58;12.63;;;10.43;;
16826;SDS011;8530;49.540;8.576;2023-02-28T16:24:24;12.23;;;8.83;;
16826;SDS011;8530;49.540;8.576;2023-02-28T16:26:52;10.73;;;9.63;;
16826;SDS011;8530;49.540;8.576;2023-02-28T16:29:22;13.43;;;9.20;;
16826;SDS011;8530;49.540;8.576;2023-02-28T16:31:51;10.30;;;8.80;;
16826;SDS011;8530;49.540;8.576;2023-02-28T16:34:18;10.00;;;8.73;;